createdAt,value
2017-08-30T00:01:44.436Z,7.20
2017-08-30T00:04:12.822Z,8.00
2017-08-30T00:06:41.224Z,7.53
2017-08-30T00:09:09.613Z,6.47
2017-08-30T00:11:37.931Z,7.00
2017-08-30T00:14:06.224Z,7.47
2017-08-30T00:16:34.535Z,7.30
2017-08-30T00:19:02.816Z,7.07
2017-08-30T00:21:31.164Z,7.07
2017-08-30T00:23:59.476Z,8.27
2017-08-30T00:26:28.682Z,8.17
2017-08-30T00:28:57.019Z,8.80
2017-08-30T00:31:25.308Z,7.60
2017-08-30T00:33:53.591Z,7.03
2017-08-30T00:36:22.004Z,7.70
2017-08-30T00:38:50.334Z,7.07
2017-08-30T00:41:18.657Z,7.10
2017-08-30T00:43:46.936Z,7.13
2017-08-30T00:46:15.243Z,6.97
2017-08-30T00:48:44.345Z,7.63
2017-08-30T00:51:12.684Z,7.50
2017-08-30T00:53:41.017Z,7.10
2017-08-30T00:56:09.348Z,7.87
2017-08-30T00:58:37.641Z,8.03
2017-08-30T01:01:05.919Z,8.27
2017-08-30T01:03:34.310Z,7.83
2017-08-30T01:06:02.604Z,8.57
2017-08-30T01:08:30.919Z,7.80
2017-08-30T01:10:59.284Z,8.70
2017-08-30T01:13:27.676Z,7.80
2017-08-30T01:15:55.992Z,8.20
2017-08-30T01:18:24.369Z,7.70
2017-08-30T01:20:52.744Z,9.27
2017-08-30T01:23:21.139Z,9.50
2017-08-30T01:25:49.415Z,9.20
2017-08-30T01:28:17.824Z,7.90
2017-08-30T01:30:46.136Z,8.30
2017-08-30T01:33:14.457Z,8.10
2017-08-30T01:35:42.740Z,7.90
2017-08-30T01:38:11.093Z,8.10
2017-08-30T01:40:39.480Z,7.50
2017-08-30T01:43:07.771Z,8.63
2017-08-30T01:45:36.146Z,7.30
2017-08-30T01:48:04.454Z,8.33
2017-08-30T01:50:32.741Z,9.83
2017-08-30T01:53:01.114Z,9.50
2017-08-30T01:55:29.404Z,10.60
2017-08-30T01:57:57.733Z,8.90
2017-08-30T02:00:26.048Z,9.70
2017-08-30T02:02:54.383Z,8.57
2017-08-30T02:05:22.777Z,8.90
2017-08-30T02:07:51.100Z,8.97
2017-08-30T02:10:19.447Z,9.13
2017-08-30T02:12:47.849Z,9.10
2017-08-30T02:15:16.170Z,9.47
2017-08-30T02:17:44.469Z,9.93
2017-08-30T02:20:12.820Z,10.10
2017-08-30T02:22:41.103Z,9.73
2017-08-30T02:25:09.521Z,9.90
2017-08-30T02:27:37.803Z,9.33
2017-08-30T02:30:06.110Z,8.37
2017-08-30T02:32:34.408Z,10.03
2017-08-30T02:35:02.700Z,9.20
2017-08-30T02:37:31.033Z,8.73
2017-08-30T02:39:59.361Z,9.93
2017-08-30T02:42:27.719Z,10.60
2017-08-30T02:44:56.012Z,9.53
2017-08-30T02:47:24.391Z,13.57
2017-08-30T02:49:52.720Z,9.63
2017-08-30T02:52:21.089Z,16.13
2017-08-30T02:54:49.403Z,10.43
2017-08-30T02:57:18.615Z,12.43
2017-08-30T02:59:46.968Z,17.30
2017-08-30T03:02:15.296Z,12.63
2017-08-30T03:04:43.589Z,10.03
2017-08-30T03:07:11.943Z,11.10
2017-08-30T03:09:40.330Z,10.37
2017-08-30T03:12:08.716Z,10.53
2017-08-30T03:14:36.996Z,8.50
2017-08-30T03:17:05.309Z,10.37
2017-08-30T03:19:33.641Z,11.03
2017-08-30T03:22:01.996Z,11.30
2017-08-30T03:24:30.455Z,10.33
2017-08-30T03:26:58.758Z,12.33
2017-08-30T03:29:27.160Z,10.77
2017-08-30T03:31:55.443Z,10.97
2017-08-30T03:34:23.773Z,10.33
2017-08-30T03:36:52.073Z,9.77
2017-08-30T03:39:21.253Z,10.03
2017-08-30T03:41:49.631Z,11.17
2017-08-30T03:44:17.923Z,10.80
2017-08-30T03:46:46.311Z,11.43
2017-08-30T03:49:14.609Z,11.83
2017-08-30T03:51:43.003Z,9.80
2017-08-30T03:54:11.290Z,11.70
2017-08-30T03:56:39.671Z,11.93
2017-08-30T03:59:07.991Z,10.70
2017-08-30T04:01:37.075Z,10.30
2017-08-30T04:04:05.462Z,11.10
2017-08-30T04:06:33.768Z,12.17
2017-08-30T04:09:02.082Z,10.63
2017-08-30T04:11:30.380Z,12.33
2017-08-30T04:13:58.719Z,10.33
2017-08-30T04:16:27.060Z,10.10
2017-08-30T04:18:55.351Z,11.33
2017-08-30T04:21:23.649Z,9.97
2017-08-30T04:23:51.966Z,10.77
2017-08-30T04:26:20.251Z,13.30
2017-08-30T04:28:48.572Z,9.87
2017-08-30T04:31:16.892Z,11.23
2017-08-30T04:33:45.207Z,12.83
2017-08-30T04:36:13.536Z,10.73
2017-08-30T04:38:41.825Z,11.30
2017-08-30T04:41:10.221Z,10.47
2017-08-30T04:43:38.598Z,10.20
2017-08-30T04:46:06.893Z,9.90
2017-08-30T04:48:35.351Z,9.63
2017-08-30T04:51:03.635Z,9.70
2017-08-30T04:53:31.937Z,9.93
2017-08-30T04:56:00.347Z,10.50
2017-08-30T04:58:28.678Z,8.20
2017-08-30T05:00:56.992Z,9.70
2017-08-30T05:03:25.280Z,7.73
2017-08-30T05:05:53.578Z,8.40
2017-08-30T05:08:21.896Z,8.80
2017-08-30T05:10:50.291Z,8.30
2017-08-30T05:13:18.621Z,6.90
2017-08-30T05:15:46.972Z,8.43
2017-08-30T05:18:15.359Z,8.87
2017-08-30T05:20:43.675Z,6.83
2017-08-30T05:23:12.729Z,8.37
2017-08-30T05:25:41.148Z,8.30
2017-08-30T05:28:09.536Z,7.60
2017-08-30T05:30:37.857Z,7.13
2017-08-30T05:33:06.216Z,7.70
2017-08-30T05:35:34.536Z,7.70
2017-08-30T05:38:03.612Z,7.50
2017-08-30T05:40:31.895Z,7.27
2017-08-30T05:43:00.590Z,13.73
2017-08-30T05:45:28.884Z,10.50
2017-08-30T05:47:57.173Z,6.77
2017-08-30T05:50:25.497Z,8.30
2017-08-30T05:52:53.880Z,7.00
2017-08-30T05:55:22.266Z,8.93
2017-08-30T05:57:50.591Z,6.67
2017-08-30T06:00:18.902Z,8.63
2017-08-30T06:02:47.312Z,10.77
2017-08-30T06:05:15.613Z,12.03
2017-08-30T06:07:43.931Z,8.20
2017-08-30T06:10:12.239Z,7.97
2017-08-30T06:12:40.603Z,6.00
2017-08-30T06:15:08.888Z,6.40
2017-08-30T06:17:37.373Z,7.87
2017-08-30T06:20:05.660Z,6.43
2017-08-30T06:22:33.953Z,6.50
2017-08-30T06:25:02.352Z,11.80
2017-08-30T06:27:30.657Z,7.87
2017-08-30T06:29:58.975Z,6.40
2017-08-30T06:32:27.300Z,6.17
2017-08-30T06:34:55.593Z,6.70
2017-08-30T06:37:23.879Z,7.20
2017-08-30T06:39:52.286Z,6.97
2017-08-30T06:42:20.563Z,7.80
2017-08-30T06:44:48.884Z,7.70
2017-08-30T06:47:17.255Z,6.07
2017-08-30T06:49:45.576Z,7.17
2017-08-30T06:52:13.854Z,10.50
2017-08-30T06:54:43.139Z,5.13
2017-08-30T06:57:11.420Z,6.00
2017-08-30T06:59:39.718Z,5.43
2017-08-30T07:02:08.104Z,5.77
2017-08-30T07:04:36.407Z,5.57
2017-08-30T07:07:04.731Z,6.27
2017-08-30T07:09:33.010Z,5.50
2017-08-30T07:12:01.371Z,9.13
2017-08-30T07:14:29.656Z,8.37
2017-08-30T07:16:57.988Z,6.17
2017-08-30T07:19:26.330Z,6.30
2017-08-30T07:21:54.621Z,7.77
2017-08-30T07:24:22.939Z,7.60
2017-08-30T07:26:51.232Z,8.80
2017-08-30T07:29:19.586Z,10.73
2017-08-30T07:31:48.001Z,8.57
2017-08-30T07:34:16.393Z,6.00
2017-08-30T07:36:44.776Z,6.10
2017-08-30T07:39:13.064Z,6.40
2017-08-30T07:41:41.393Z,5.97
2017-08-30T07:44:09.685Z,5.93
2017-08-30T07:46:38.023Z,8.30
2017-08-30T07:49:06.349Z,6.80
2017-08-30T07:51:35.527Z,6.17
2017-08-30T07:54:03.803Z,9.53
2017-08-30T07:56:32.124Z,5.37
2017-08-30T07:59:00.412Z,6.30
2017-08-30T08:01:28.791Z,8.90
2017-08-30T08:03:57.172Z,7.90
2017-08-30T08:06:25.452Z,11.20
2017-08-30T08:08:53.855Z,9.33
2017-08-30T08:11:22.859Z,8.43
2017-08-30T08:13:51.171Z,7.20
2017-08-30T08:16:19.489Z,6.67
2017-08-30T08:18:47.826Z,6.73
2017-08-30T08:21:16.121Z,6.17
2017-08-30T08:23:44.431Z,5.80
2017-08-30T08:26:12.806Z,5.30
2017-08-30T08:28:41.112Z,7.13
2017-08-30T08:31:09.508Z,5.90
2017-08-30T08:33:37.885Z,6.60
2017-08-30T08:36:06.277Z,4.77
2017-08-30T08:38:34.565Z,8.20
2017-08-30T08:41:02.893Z,7.90
2017-08-30T08:43:31.237Z,5.80
2017-08-30T08:45:59.628Z,8.40
2017-08-30T08:48:27.960Z,6.03
2017-08-30T08:50:56.313Z,6.57
2017-08-30T08:53:24.597Z,7.80
2017-08-30T08:55:52.984Z,7.33
2017-08-30T08:58:21.308Z,6.77
2017-08-30T09:00:49.592Z,6.13
2017-08-30T09:03:17.877Z,5.67
2017-08-30T09:05:46.204Z,8.57
2017-08-30T09:08:14.530Z,6.57
2017-08-30T09:10:42.860Z,6.03
2017-08-30T09:13:11.153Z,7.23
2017-08-30T09:15:39.499Z,7.03
2017-08-30T09:18:07.837Z,6.70
2017-08-30T09:20:36.132Z,5.87
2017-08-30T09:23:04.448Z,6.70
2017-08-30T09:25:32.803Z,11.40
2017-08-30T09:28:01.177Z,8.07
2017-08-30T09:30:29.464Z,5.97
2017-08-30T09:32:57.771Z,8.30
2017-08-30T09:35:26.056Z,8.27
2017-08-30T09:37:55.141Z,6.23
2017-08-30T09:40:25.544Z,6.10
2017-08-30T09:42:58.369Z,6.60
2017-08-30T09:45:27.659Z,7.73
2017-08-30T09:47:56.215Z,6.03
2017-08-30T09:50:24.528Z,5.70
2017-08-30T09:52:52.846Z,6.17
2017-08-30T09:55:21.229Z,6.07
2017-08-30T09:57:49.511Z,5.57
2017-08-30T10:00:17.920Z,6.17
2017-08-30T10:02:46.504Z,6.57
2017-08-30T10:05:14.895Z,5.93
2017-08-30T10:07:43.488Z,7.43
2017-08-30T10:10:11.801Z,6.50
2017-08-30T10:12:40.124Z,6.10
2017-08-30T10:15:08.441Z,8.17
2017-08-30T10:17:36.718Z,6.73
2017-08-30T10:20:05.055Z,5.97
2017-08-30T10:22:33.339Z,6.47
2017-08-30T10:25:01.629Z,6.13
2017-08-30T10:27:30.021Z,6.33
2017-08-30T10:29:58.300Z,6.43
2017-08-30T10:32:26.618Z,5.97
2017-08-30T10:34:54.992Z,5.97
2017-08-30T10:37:23.356Z,6.80
2017-08-30T10:39:51.680Z,4.97
2017-08-30T10:42:20.001Z,5.77
2017-08-30T10:44:48.352Z,6.53
2017-08-30T10:47:17.551Z,5.40
2017-08-30T10:49:45.854Z,5.87
2017-08-30T10:52:14.140Z,7.20
2017-08-30T10:54:42.448Z,5.97
2017-08-30T10:57:10.820Z,5.83
2017-08-30T10:59:39.212Z,6.30
2017-08-30T11:02:07.500Z,5.70
2017-08-30T11:04:35.811Z,5.90
2017-08-30T11:07:04.103Z,5.37
2017-08-30T11:09:32.468Z,5.43
2017-08-30T11:12:00.747Z,5.60
2017-08-30T11:14:29.152Z,5.70
2017-08-30T11:16:57.607Z,5.53
2017-08-30T11:19:25.932Z,7.40
2017-08-30T11:21:54.210Z,5.00
2017-08-30T11:24:22.536Z,6.30
2017-08-30T11:26:50.834Z,6.20
2017-08-30T11:29:19.125Z,5.47
2017-08-30T11:31:47.412Z,5.40
2017-08-30T11:34:15.729Z,6.57
2017-08-30T11:36:44.034Z,8.53
2017-08-30T11:39:12.320Z,7.80
2017-08-30T11:41:40.650Z,4.77
2017-08-30T11:44:09.032Z,4.93
2017-08-30T11:46:37.429Z,4.50
2017-08-30T11:49:05.749Z,5.03
2017-08-30T11:51:34.108Z,5.40
2017-08-30T11:54:02.436Z,5.70
2017-08-30T11:56:30.739Z,5.00
2017-08-30T11:58:59.888Z,6.20
2017-08-30T12:01:28.217Z,6.70
2017-08-30T12:03:56.521Z,5.27
2017-08-30T12:06:24.841Z,5.33
2017-08-30T12:08:53.119Z,5.17
2017-08-30T12:11:21.412Z,5.57
2017-08-30T12:13:50.507Z,6.67
2017-08-30T12:16:18.856Z,4.97
2017-08-30T12:18:47.219Z,6.73
2017-08-30T12:21:15.607Z,5.93
2017-08-30T12:23:43.901Z,4.97
2017-08-30T12:26:12.586Z,5.10
2017-08-30T12:28:40.893Z,5.43
2017-08-30T12:31:09.995Z,6.53
2017-08-30T12:33:38.306Z,6.20
2017-08-30T12:36:06.680Z,5.07
2017-08-30T12:41:35.719Z,5.13
2017-08-30T12:44:04.937Z,5.10
2017-08-30T12:46:33.237Z,5.33
2017-08-30T12:49:02.296Z,7.73
2017-08-30T12:51:30.721Z,5.80
2017-08-30T12:53:59.039Z,5.97
2017-08-30T12:56:27.405Z,4.40
2017-08-30T12:58:55.719Z,4.70
2017-08-30T13:01:24.009Z,4.80
2017-08-30T13:03:52.334Z,5.17
2017-08-30T13:06:20.612Z,5.27
2017-08-30T13:08:49.689Z,7.77
2017-08-30T13:11:18.021Z,5.23
2017-08-30T13:13:46.299Z,4.67
2017-08-30T13:16:14.635Z,5.07
2017-08-30T13:18:42.941Z,3.50
2017-08-30T13:21:11.250Z,6.80
2017-08-30T13:23:39.567Z,4.40
2017-08-30T13:26:07.916Z,3.93
2017-08-30T13:28:36.991Z,4.23
2017-08-30T13:31:05.788Z,4.17
2017-08-30T13:33:34.199Z,4.13
2017-08-30T13:36:02.887Z,4.87
2017-08-30T13:38:31.216Z,4.37
2017-08-30T13:40:59.561Z,3.87
2017-08-30T13:43:27.866Z,4.90
2017-08-30T13:45:56.240Z,4.53
2017-08-30T13:48:24.641Z,3.63
2017-08-30T13:50:52.937Z,3.37
2017-08-30T13:53:21.222Z,3.43
2017-08-30T13:55:49.603Z,3.57
2017-08-30T13:58:17.892Z,3.37
2017-08-30T14:00:46.212Z,7.53
2017-08-30T14:03:14.501Z,4.33
2017-08-30T14:05:42.824Z,7.03
2017-08-30T14:08:11.125Z,3.63
2017-08-30T14:10:39.439Z,3.00
2017-08-30T14:13:07.732Z,3.40
2017-08-30T14:15:36.040Z,7.17
2017-08-30T14:18:04.416Z,5.50
2017-08-30T14:20:32.700Z,3.23
2017-08-30T14:23:01.100Z,3.23
2017-08-30T14:25:29.482Z,4.13
2017-08-30T14:27:57.885Z,6.70
2017-08-30T14:30:26.273Z,3.23
2017-08-30T14:32:54.657Z,5.60
2017-08-30T14:35:22.956Z,3.67
2017-08-30T14:37:51.272Z,3.67
2017-08-30T14:40:20.463Z,2.77
2017-08-30T14:42:48.781Z,4.07
2017-08-30T14:45:17.146Z,6.53
2017-08-30T14:47:45.523Z,3.90
2017-08-30T14:50:13.906Z,7.00
2017-08-30T14:52:42.299Z,6.83
2017-08-30T14:55:10.611Z,3.77
2017-08-30T14:57:38.976Z,3.57
2017-08-30T15:00:07.264Z,2.90
2017-08-30T15:02:35.589Z,3.33
2017-08-30T15:05:03.882Z,4.20
2017-08-30T15:07:32.208Z,3.03
2017-08-30T15:10:00.497Z,3.60
2017-08-30T15:12:28.789Z,6.47
2017-08-30T15:14:57.104Z,7.43
2017-08-30T15:17:25.394Z,3.00
2017-08-30T15:19:53.823Z,3.27
2017-08-30T15:22:22.147Z,3.73
2017-08-30T15:24:50.436Z,3.40
2017-08-30T15:27:19.322Z,3.30
2017-08-30T15:29:47.669Z,3.50
2017-08-30T15:32:16.047Z,3.67
2017-08-30T15:34:44.445Z,3.63
2017-08-30T15:37:12.776Z,3.30
2017-08-30T15:39:41.055Z,4.27
2017-08-30T15:42:09.367Z,5.13
2017-08-30T15:44:37.720Z,3.27
2017-08-30T15:47:10.650Z,4.43
2017-08-30T15:49:39.090Z,2.97
2017-08-30T15:52:07.492Z,3.20
2017-08-30T15:54:35.899Z,3.30
2017-08-30T15:57:04.450Z,3.33
2017-08-30T15:59:32.804Z,3.20
2017-08-30T16:02:01.162Z,3.40
2017-08-30T16:04:29.538Z,3.27
2017-08-30T16:06:57.837Z,2.77
2017-08-30T16:09:26.156Z,7.47
2017-08-30T16:11:55.290Z,3.37
2017-08-30T16:14:23.604Z,3.00
2017-08-30T16:16:52.020Z,6.90
2017-08-30T16:19:20.309Z,2.73
2017-08-30T16:21:48.615Z,4.90
2017-08-30T16:24:16.971Z,2.53
2017-08-30T16:26:45.382Z,3.13
2017-08-30T16:29:13.755Z,4.77
2017-08-30T16:31:42.043Z,2.63
2017-08-30T16:34:10.353Z,3.37
2017-08-30T16:36:38.676Z,7.53
2017-08-30T16:39:07.028Z,3.80
2017-08-30T16:41:36.478Z,4.00
2017-08-30T16:44:04.868Z,4.57
2017-08-30T16:46:33.156Z,3.87
2017-08-30T16:49:01.477Z,6.03
2017-08-30T16:51:29.765Z,4.43
2017-08-30T16:53:58.142Z,4.90
2017-08-30T16:56:26.501Z,6.70
2017-08-30T16:58:55.581Z,4.57
2017-08-30T17:01:23.964Z,5.57
2017-08-30T17:03:52.265Z,5.77
2017-08-30T17:06:20.568Z,7.73
2017-08-30T17:08:48.961Z,5.13
2017-08-30T17:11:17.243Z,6.33
2017-08-30T17:13:45.752Z,6.03
2017-08-30T17:16:14.045Z,5.90
2017-08-30T17:18:42.370Z,5.57
2017-08-30T17:21:10.818Z,8.73
2017-08-30T17:23:39.152Z,6.93
2017-08-30T17:26:07.432Z,5.90
2017-08-30T17:28:35.723Z,5.87
2017-08-30T17:31:05.934Z,4.93
2017-08-30T17:33:36.453Z,8.50
2017-08-30T17:36:06.666Z,4.80
2017-08-30T17:38:36.126Z,4.50
2017-08-30T17:41:04.447Z,4.43
2017-08-30T17:43:32.789Z,4.20
2017-08-30T17:46:01.168Z,3.33
2017-08-30T17:48:29.567Z,7.80
2017-08-30T17:50:58.061Z,4.20
2017-08-30T17:53:29.177Z,3.93
2017-08-30T17:55:57.759Z,6.13
2017-08-30T17:58:27.728Z,5.20
2017-08-30T18:00:57.638Z,5.97
2017-08-30T18:03:27.642Z,4.43
2017-08-30T18:05:59.489Z,8.97
2017-08-30T18:08:28.188Z,6.20
2017-08-30T18:10:56.481Z,7.33
2017-08-30T18:13:24.854Z,4.23
2017-08-30T18:15:53.181Z,4.30
2017-08-30T18:18:21.454Z,4.93
2017-08-30T18:20:49.823Z,6.87
2017-08-30T18:23:18.237Z,4.87
2017-08-30T18:25:46.624Z,6.83
2017-08-30T18:28:15.123Z,4.60
2017-08-30T18:30:43.394Z,4.03
2017-08-30T18:33:11.684Z,5.60
2017-08-30T18:35:40.216Z,5.83
2017-08-30T18:38:08.577Z,5.60
2017-08-30T18:40:36.968Z,5.93
2017-08-30T18:43:05.249Z,6.43
2017-08-30T18:45:33.651Z,9.60
2017-08-30T18:48:01.966Z,5.87
2017-08-30T18:50:30.251Z,4.47
2017-08-30T18:52:58.609Z,4.40
2017-08-30T18:55:26.906Z,5.53
2017-08-30T18:57:55.297Z,7.00
2017-08-30T19:00:23.580Z,6.00
2017-08-30T19:02:51.892Z,4.60
2017-08-30T19:05:20.971Z,6.13
2017-08-30T19:07:49.247Z,5.03
2017-08-30T19:10:19.946Z,4.90
2017-08-30T19:12:48.232Z,5.30
2017-08-30T19:15:16.721Z,11.93
2017-08-30T19:17:45.129Z,5.60
2017-08-30T19:20:13.417Z,4.80
2017-08-30T19:22:42.501Z,6.80
2017-08-30T19:25:10.792Z,5.17
2017-08-30T19:27:39.071Z,4.70
2017-08-30T19:30:07.489Z,5.93
2017-08-30T19:32:35.796Z,6.33
2017-08-30T19:35:04.111Z,4.73
2017-08-30T19:37:32.537Z,9.13
2017-08-30T19:40:00.851Z,4.70
2017-08-30T19:42:29.140Z,4.27
2017-08-30T19:44:57.560Z,5.20
2017-08-30T19:47:25.832Z,5.30
2017-08-30T19:49:54.114Z,4.60
2017-08-30T19:52:22.423Z,3.93
2017-08-30T19:54:51.705Z,5.27
2017-08-30T19:57:20.024Z,3.37
2017-08-30T19:59:48.299Z,4.70
2017-08-30T20:02:16.624Z,5.93
2017-08-30T20:04:44.911Z,6.10
2017-08-30T20:07:13.223Z,3.47
2017-08-30T20:09:41.507Z,4.73
2017-08-30T20:12:09.830Z,5.47
2017-08-30T20:14:38.142Z,4.63
2017-08-30T20:17:06.560Z,3.83
2017-08-30T20:19:34.841Z,4.03
2017-08-30T20:22:03.464Z,4.00
2017-08-30T20:24:31.814Z,3.83
2017-08-30T20:27:00.142Z,3.97
2017-08-30T20:29:28.425Z,4.97
2017-08-30T20:31:56.708Z,4.27
2017-08-30T20:34:25.022Z,4.43
2017-08-30T20:36:53.303Z,3.90
2017-08-30T20:39:21.592Z,3.57
2017-08-30T20:41:49.921Z,5.00
2017-08-30T20:44:18.997Z,4.00
2017-08-30T20:46:47.319Z,3.80
2017-08-30T20:49:15.599Z,3.87
2017-08-30T20:51:44.690Z,4.20
2017-08-30T20:54:12.985Z,4.10
2017-08-30T20:56:41.377Z,4.47
2017-08-30T20:59:09.696Z,4.10
2017-08-30T21:01:38.016Z,4.30
2017-08-30T21:04:06.291Z,3.57
2017-08-30T21:06:34.603Z,6.83
2017-08-30T21:09:02.923Z,4.13
2017-08-30T21:11:31.208Z,3.80
2017-08-30T21:13:59.597Z,5.43
2017-08-30T21:16:27.884Z,5.53
2017-08-30T21:18:56.205Z,4.30
2017-08-30T21:21:25.246Z,4.07
2017-08-30T21:23:53.559Z,6.93
2017-08-30T21:26:21.877Z,11.13
2017-08-30T21:28:51.077Z,4.83
2017-08-30T21:31:19.372Z,4.73
2017-08-30T21:33:47.660Z,6.27
2017-08-30T21:36:15.970Z,5.07
2017-08-30T21:38:45.032Z,5.80
2017-08-30T21:41:14.157Z,4.20
2017-08-30T21:43:42.633Z,4.60
2017-08-30T21:46:10.927Z,5.50
2017-08-30T21:48:39.238Z,5.40
2017-08-30T21:51:07.517Z,4.53
2017-08-30T21:53:35.908Z,5.23
2017-08-30T21:56:04.233Z,3.93
2017-08-30T21:58:32.526Z,4.80
2017-08-30T22:01:00.876Z,4.90
2017-08-30T22:03:29.173Z,5.43
2017-08-30T22:05:57.484Z,5.30
2017-08-30T22:08:25.767Z,9.90
2017-08-30T22:10:54.080Z,4.83
2017-08-30T22:13:22.386Z,6.00
2017-08-30T22:15:50.708Z,4.43
2017-08-30T22:18:18.979Z,6.53
2017-08-30T22:20:47.387Z,4.97
2017-08-30T22:23:15.771Z,4.50
2017-08-30T22:25:44.100Z,6.23
2017-08-30T22:28:12.465Z,8.13
2017-08-30T22:30:40.775Z,5.67
2017-08-30T22:33:09.851Z,4.97
2017-08-30T22:35:38.132Z,7.27
2017-08-30T22:38:06.456Z,5.10
2017-08-30T22:40:34.736Z,5.60
2017-08-30T22:43:03.394Z,5.20
2017-08-30T22:45:31.807Z,6.73
2017-08-30T22:48:00.500Z,5.33
2017-08-30T22:50:28.815Z,7.13
2017-08-30T22:52:57.113Z,5.43
2017-08-30T22:55:25.488Z,5.40
2017-08-30T22:57:53.799Z,5.17
2017-08-30T23:00:22.118Z,4.77
2017-08-30T23:02:50.404Z,5.80
2017-08-30T23:05:18.711Z,4.40
2017-08-30T23:07:46.990Z,6.83
2017-08-30T23:10:15.312Z,5.27
2017-08-30T23:12:43.598Z,6.33
2017-08-30T23:15:11.919Z,5.23
2017-08-30T23:17:40.200Z,5.00
2017-08-30T23:20:08.479Z,6.37
2017-08-30T23:22:36.795Z,9.10
2017-08-30T23:25:05.076Z,8.17
2017-08-30T23:27:33.436Z,5.47
2017-08-30T23:30:01.746Z,7.77
2017-08-30T23:32:30.062Z,6.43
2017-08-30T23:34:58.374Z,5.40
2017-08-30T23:37:26.695Z,5.57
2017-08-30T23:39:54.992Z,5.83
2017-08-30T23:42:23.319Z,5.37
2017-08-30T23:44:51.660Z,5.07
2017-08-30T23:47:19.945Z,6.03
2017-08-30T23:49:48.232Z,10.00
2017-08-30T23:52:16.556Z,5.47
2017-08-30T23:54:44.933Z,5.03
2017-08-30T23:57:13.328Z,11.67
2017-08-30T23:59:41.635Z,4.83
